createdAt,value
2023-03-18T00:02:09.825Z,5.37
2023-03-18T00:04:37.092Z,5.37
2023-03-18T00:07:03.586Z,6.07
2023-03-18T00:09:29.998Z,5.57
2023-03-18T00:11:56.837Z,6.30
2023-03-18T00:14:24.083Z,5.93
2023-03-18T00:16:50.646Z,5.77
2023-03-18T00:19:17.718Z,5.57
2023-03-18T00:21:44.555Z,4.63
2023-03-18T00:24:12.198Z,5.40
2023-03-18T00:26:38.567Z,5.97
2023-03-18T00:29:05.207Z,5.17
2023-03-18T00:31:31.840Z,5.07
2023-03-18T00:33:58.724Z,5.10
2023-03-18T00:36:27.732Z,5.43
2023-03-18T00:38:57.635Z,5.77
2023-03-18T00:41:26.081Z,6.23
2023-03-18T00:43:53.826Z,5.57
2023-03-18T00:46:29.533Z,5.90
2023-03-18T00:49:00.261Z,7.37
2023-03-18T00:51:31.364Z,6.43
2023-03-18T00:54:00.512Z,5.80
2023-03-18T00:56:29.354Z,5.67
2023-03-18T00:58:57.099Z,7.30
2023-03-18T01:01:24.941Z,6.37
2023-03-18T01:03:51.507Z,4.87
2023-03-18T01:06:22.487Z,7.17
2023-03-18T01:08:50.097Z,5.90
2023-03-18T01:11:17.984Z,6.40
2023-03-18T01:13:45.909Z,7.97
2023-03-18T01:16:13.204Z,5.40
2023-03-18T01:18:41.416Z,5.30
2023-03-18T01:21:09.352Z,5.73
2023-03-18T01:23:40.976Z,6.60
2023-03-18T01:26:07.751Z,5.77
2023-03-18T01:28:35.043Z,5.63
2023-03-18T01:31:03.221Z,5.77
2023-03-18T01:33:29.802Z,6.53
2023-03-18T01:35:59.676Z,6.30
2023-03-18T01:38:32.080Z,11.00
2023-03-18T01:41:07.676Z,6.23
2023-03-18T01:43:36.460Z,5.53
2023-03-18T01:46:30.221Z,11.83
2023-03-18T01:48:58.825Z,5.63
2023-03-18T01:51:26.880Z,6.20
2023-03-18T01:53:54.386Z,5.43
2023-03-18T01:56:22.027Z,5.60
2023-03-18T01:58:52.186Z,5.77
2023-03-18T02:01:28.719Z,5.97
2023-03-18T02:03:56.618Z,8.50
2023-03-18T02:06:24.715Z,6.90
2023-03-18T02:09:00.288Z,5.83
2023-03-18T02:11:28.593Z,10.20
2023-03-18T02:14:00.380Z,5.93
2023-03-18T02:16:34.175Z,7.23
2023-03-18T02:19:12.627Z,8.03
2023-03-18T02:21:52.737Z,6.43
2023-03-18T02:24:36.569Z,8.90
2023-03-18T02:27:21.317Z,6.13
2023-03-18T02:29:49.525Z,5.80
2023-03-18T02:32:21.281Z,5.67
2023-03-18T02:34:48.988Z,5.23
2023-03-18T02:37:15.495Z,6.57
2023-03-18T02:39:42.958Z,5.50
2023-03-18T02:42:14.148Z,9.83
2023-03-18T02:44:47.515Z,10.07
2023-03-18T02:47:32.095Z,6.67
2023-03-18T02:49:59.390Z,5.73
2023-03-18T02:52:26.403Z,5.53
2023-03-18T02:54:53.308Z,5.57
2023-03-18T02:57:19.710Z,5.40
2023-03-18T02:59:46.921Z,8.47
2023-03-18T03:02:13.457Z,7.80
2023-03-18T03:04:39.920Z,5.50
2023-03-18T03:07:06.359Z,5.47
2023-03-18T03:09:41.696Z,5.23
2023-03-18T03:12:09.066Z,5.93
2023-03-18T03:14:40.662Z,5.27
2023-03-18T03:17:07.298Z,5.33
2023-03-18T03:19:33.647Z,5.40
2023-03-18T03:22:01.513Z,5.50
2023-03-18T03:24:27.925Z,5.80
2023-03-18T03:26:54.582Z,10.40
2023-03-18T03:29:21.616Z,6.93
2023-03-18T03:31:49.305Z,9.97
2023-03-18T03:34:15.730Z,7.40
2023-03-18T03:36:43.002Z,6.70
2023-03-18T03:39:09.326Z,8.27
2023-03-18T03:41:35.680Z,7.00
2023-03-18T03:44:02.001Z,7.77
2023-03-18T03:46:28.740Z,7.30
2023-03-18T03:48:55.180Z,7.07
2023-03-18T03:51:22.086Z,7.57
2023-03-18T03:53:48.568Z,8.10
2023-03-18T03:56:15.478Z,8.00
2023-03-18T03:58:42.040Z,8.07
2023-03-18T04:01:08.639Z,7.73
2023-03-18T04:03:35.413Z,6.40
2023-03-18T04:06:06.557Z,9.43
2023-03-18T04:08:35.075Z,6.37
2023-03-18T04:11:04.434Z,7.10
2023-03-18T04:13:31.167Z,7.67
2023-03-18T04:15:57.555Z,11.53
2023-03-18T04:18:23.941Z,10.40
2023-03-18T04:20:50.291Z,9.70
2023-03-18T04:23:27.354Z,8.50
2023-03-18T04:25:53.675Z,7.30
2023-03-18T04:28:20.063Z,16.70
2023-03-18T04:30:48.113Z,14.30
2023-03-18T04:33:17.846Z,9.20
2023-03-18T04:35:44.353Z,13.40
2023-03-18T04:38:13.504Z,9.27
2023-03-18T04:40:40.822Z,14.07
2023-03-18T04:43:07.125Z,9.53
2023-03-18T04:45:33.995Z,8.50
2023-03-18T04:48:01.855Z,7.97
2023-03-18T04:50:32.478Z,7.83
2023-03-18T04:53:00.035Z,9.73
2023-03-18T04:55:29.293Z,9.47
2023-03-18T04:57:56.341Z,11.17
2023-03-18T05:00:25.219Z,8.93
2023-03-18T05:02:59.735Z,8.73
2023-03-18T05:05:26.839Z,8.73
2023-03-18T05:07:54.156Z,11.47
2023-03-18T05:10:21.421Z,8.53
2023-03-18T05:12:48.580Z,14.87
2023-03-18T05:15:18.185Z,8.87
2023-03-18T05:17:49.060Z,9.70
2023-03-18T05:20:15.472Z,9.33
2023-03-18T05:22:44.568Z,8.70
2023-03-18T05:25:16.749Z,9.87
2023-03-18T05:27:43.158Z,9.67
2023-03-18T05:30:17.759Z,9.93
2023-03-18T05:32:48.714Z,13.77
2023-03-18T05:35:16.326Z,9.23
2023-03-18T05:37:47.624Z,9.57
2023-03-18T05:40:14.580Z,8.53
2023-03-18T05:42:55.937Z,10.00
2023-03-18T05:45:32.122Z,8.07
2023-03-18T05:47:58.727Z,8.43
2023-03-18T05:50:31.040Z,8.63
2023-03-18T05:52:58.803Z,9.53
2023-03-18T05:55:28.277Z,9.20
2023-03-18T05:57:56.730Z,9.33
2023-03-18T06:00:24.633Z,8.47
2023-03-18T06:02:54.800Z,8.10
2023-03-18T06:05:22.980Z,7.83
2023-03-18T06:07:49.339Z,8.53
2023-03-18T06:10:16.893Z,7.57
2023-03-18T06:12:46.558Z,8.17
2023-03-18T06:15:13.634Z,7.77
2023-03-18T06:17:40.046Z,8.60
2023-03-18T06:20:10.173Z,8.20
2023-03-18T06:22:36.913Z,9.23
2023-03-18T06:25:04.889Z,8.67
2023-03-18T06:27:31.383Z,7.73
2023-03-18T06:30:02.651Z,9.03
2023-03-18T06:32:30.000Z,10.47
2023-03-18T06:34:56.710Z,11.43
2023-03-18T06:37:24.446Z,9.77
2023-03-18T06:39:51.133Z,12.00
2023-03-18T06:42:17.833Z,12.47
2023-03-18T06:44:53.070Z,9.63
2023-03-18T06:47:24.848Z,9.10
2023-03-18T06:49:56.642Z,17.70
2023-03-18T06:52:30.184Z,16.47
2023-03-18T06:55:02.032Z,10.00
2023-03-18T06:57:28.900Z,10.57
2023-03-18T06:59:56.061Z,11.27
2023-03-18T07:02:23.500Z,9.40
2023-03-18T07:04:50.766Z,11.67
2023-03-18T07:07:17.293Z,15.27
2023-03-18T07:09:44.920Z,18.43
2023-03-18T07:12:14.641Z,9.57
2023-03-18T07:14:42.067Z,9.60
2023-03-18T07:17:10.354Z,10.00
2023-03-18T07:19:39.679Z,9.60
2023-03-18T07:22:06.124Z,10.00
2023-03-18T07:24:32.998Z,10.27
2023-03-18T07:26:59.487Z,9.53
2023-03-18T07:29:25.893Z,11.33
2023-03-18T07:31:52.212Z,10.37
2023-03-18T07:34:19.139Z,11.57
2023-03-18T07:36:45.668Z,10.17
2023-03-18T07:39:12.278Z,9.73
2023-03-18T07:41:38.854Z,9.60
2023-03-18T07:44:07.524Z,9.87
2023-03-18T07:46:33.978Z,10.40
2023-03-18T07:49:00.951Z,9.73
2023-03-18T07:51:27.388Z,10.27
2023-03-18T07:53:53.757Z,11.40
2023-03-18T07:56:20.489Z,10.27
2023-03-18T07:58:47.818Z,13.43
2023-03-18T08:01:16.515Z,10.40
2023-03-18T08:03:43.631Z,9.70
2023-03-18T08:06:11.216Z,8.83
2023-03-18T08:08:38.520Z,10.70
2023-03-18T08:11:05.032Z,10.50
2023-03-18T08:13:31.787Z,10.77
2023-03-18T08:15:58.630Z,9.87
2023-03-18T08:18:25.240Z,7.97
2023-03-18T08:20:52.862Z,9.20
2023-03-18T08:23:19.210Z,8.87
2023-03-18T08:25:49.712Z,10.47
2023-03-18T08:28:17.646Z,9.00
2023-03-18T08:30:44.624Z,7.70
2023-03-18T08:33:11.036Z,9.23
2023-03-18T08:35:41.541Z,8.23
2023-03-18T08:38:08.031Z,7.90
2023-03-18T08:40:34.791Z,9.43
2023-03-18T08:43:01.450Z,9.00
2023-03-18T08:45:28.599Z,7.90
2023-03-18T08:47:55.512Z,7.97
2023-03-18T08:50:22.618Z,7.10
2023-03-18T08:52:48.960Z,8.40
2023-03-18T08:55:16.200Z,6.83
2023-03-18T08:57:42.856Z,8.63
2023-03-18T09:00:09.974Z,8.60
2023-03-18T09:02:36.408Z,9.23
2023-03-18T09:05:03.209Z,8.90
2023-03-18T09:07:30.548Z,9.67
2023-03-18T09:09:56.890Z,8.43
2023-03-18T09:12:23.286Z,8.77
2023-03-18T09:14:49.676Z,7.27
2023-03-18T09:17:16.560Z,7.60
2023-03-18T09:19:42.894Z,6.83
2023-03-18T09:22:10.158Z,5.23
2023-03-18T09:24:36.529Z,6.60
2023-03-18T09:27:02.959Z,6.07
2023-03-18T09:29:29.448Z,6.10
2023-03-18T09:31:56.140Z,6.30
2023-03-18T09:34:23.587Z,6.70
2023-03-18T09:36:51.468Z,6.13
2023-03-18T09:39:19.546Z,6.70
2023-03-18T09:42:21.170Z,6.30
2023-03-18T09:44:55.002Z,5.77
2023-03-18T09:47:51.245Z,6.13
2023-03-18T09:50:31.854Z,6.70
2023-03-18T09:53:18.123Z,5.63
2023-03-18T09:55:51.007Z,4.70
2023-03-18T09:58:27.127Z,6.80
2023-03-18T10:01:00.201Z,5.60
2023-03-18T10:03:37.261Z,5.07
2023-03-18T10:06:16.279Z,6.10
2023-03-18T10:09:01.948Z,5.87
2023-03-18T10:11:35.460Z,4.80
2023-03-18T10:14:30.690Z,4.80
2023-03-18T10:17:16.925Z,5.40
2023-03-18T10:19:48.446Z,5.80
2023-03-18T10:22:40.471Z,5.27
2023-03-18T10:25:26.453Z,5.03
2023-03-18T10:28:24.810Z,6.07
2023-03-18T10:31:01.372Z,4.90
2023-03-18T10:33:27.814Z,7.07
2023-03-18T10:36:08.586Z,5.27
2023-03-18T10:38:38.841Z,5.90
2023-03-18T10:41:31.239Z,6.80
2023-03-18T10:44:01.633Z,5.43
2023-03-18T10:46:28.335Z,3.87
2023-03-18T10:49:01.633Z,4.63
2023-03-18T10:51:36.375Z,4.37
2023-03-18T10:54:20.977Z,5.10
2023-03-18T10:56:47.362Z,5.53
2023-03-18T10:59:18.023Z,6.40
2023-03-18T11:01:52.253Z,5.07
2023-03-18T11:04:21.493Z,5.10
2023-03-18T11:07:07.602Z,5.13
2023-03-18T11:09:36.947Z,6.50
2023-03-18T11:12:06.707Z,4.83
2023-03-18T11:14:37.163Z,5.80
2023-03-18T11:17:17.793Z,4.87
2023-03-18T11:19:50.006Z,5.03
2023-03-18T11:22:21.364Z,5.10
2023-03-18T11:25:01.884Z,4.77
2023-03-18T11:27:35.422Z,4.80
2023-03-18T11:30:16.679Z,4.13
2023-03-18T11:33:00.860Z,3.70
2023-03-18T11:35:54.427Z,3.90
2023-03-18T11:38:28.433Z,5.50
2023-03-18T11:41:16.889Z,3.77
2023-03-18T11:44:00.064Z,3.30
2023-03-18T11:46:30.846Z,3.53
2023-03-18T11:48:59.141Z,5.47
2023-03-18T11:51:46.228Z,3.37
2023-03-18T11:54:47.673Z,3.73
2023-03-18T11:57:36.897Z,3.80
2023-03-18T12:00:31.748Z,4.10
2023-03-18T12:03:43.132Z,4.10
2023-03-18T12:06:23.581Z,3.90
2023-03-18T12:09:21.288Z,3.93
2023-03-18T12:12:08.727Z,3.90
2023-03-18T12:14:43.541Z,4.90
2023-03-18T12:17:45.338Z,4.23
2023-03-18T12:20:29.668Z,4.37
2023-03-18T12:23:13.160Z,3.73
2023-03-18T12:26:02.100Z,3.50
2023-03-18T12:28:52.442Z,5.17
2023-03-18T12:31:35.093Z,3.60
2023-03-18T12:34:03.704Z,3.60
2023-03-18T12:36:57.012Z,5.97
2023-03-18T12:39:33.794Z,4.40
2023-03-18T12:42:15.862Z,4.40
2023-03-18T12:45:10.051Z,5.90
2023-03-18T12:47:50.452Z,3.93
2023-03-18T12:50:26.441Z,4.70
2023-03-18T12:53:16.603Z,4.37
2023-03-18T12:55:50.287Z,4.97
2023-03-18T12:58:23.075Z,3.90
2023-03-18T13:00:58.922Z,5.67
2023-03-18T13:03:33.264Z,4.40
2023-03-18T13:06:11.883Z,3.73
2023-03-18T13:09:10.536Z,3.70
2023-03-18T13:12:16.074Z,3.17
2023-03-18T13:14:56.256Z,3.70
2023-03-18T13:17:39.830Z,4.03
2023-03-18T13:20:14.950Z,15.83
2023-03-18T13:22:46.858Z,3.10
2023-03-18T13:25:40.960Z,3.27
2023-03-18T13:28:26.109Z,3.63
2023-03-18T13:30:56.843Z,3.73
2023-03-18T13:33:45.435Z,3.97
2023-03-18T13:36:47.073Z,3.53
2023-03-18T13:39:53.354Z,3.47
2023-03-18T13:42:25.830Z,3.57
2023-03-18T13:45:15.624Z,4.03
2023-03-18T13:47:44.165Z,3.90
2023-03-18T13:50:19.887Z,4.00
2023-03-18T13:52:47.760Z,7.37
2023-03-18T13:55:29.769Z,5.30
2023-03-18T13:58:06.440Z,4.10
2023-03-18T14:00:35.003Z,6.83
2023-03-18T14:03:13.961Z,5.67
2023-03-18T14:05:42.400Z,4.40
2023-03-18T14:08:39.652Z,4.00
2023-03-18T14:11:15.106Z,4.90
2023-03-18T14:13:41.446Z,4.40
2023-03-18T14:16:10.769Z,4.70
2023-03-18T14:18:38.015Z,5.93
2023-03-18T14:21:24.097Z,9.80
2023-03-18T14:24:29.914Z,4.80
2023-03-18T14:26:59.295Z,5.17
2023-03-18T14:29:31.008Z,4.63
2023-03-18T14:32:08.193Z,4.83
2023-03-18T14:34:54.147Z,4.80
2023-03-18T14:37:26.570Z,5.27
2023-03-18T14:39:56.298Z,5.07
2023-03-18T14:42:23.143Z,4.63
2023-03-18T14:44:54.106Z,5.37
2023-03-18T14:47:48.558Z,5.80
2023-03-18T14:50:21.946Z,4.77
2023-03-18T14:52:56.529Z,2.93
2023-03-18T14:55:27.763Z,3.73
2023-03-18T14:57:54.129Z,12.40
2023-03-18T15:00:21.923Z,4.53
2023-03-18T15:03:00.656Z,3.33
2023-03-18T15:05:33.902Z,29.57
2023-03-18T15:08:00.830Z,7.33
2023-03-18T15:10:30.774Z,3.27
2023-03-18T15:13:11.565Z,4.30
2023-03-18T15:15:38.894Z,12.33
2023-03-18T15:18:18.993Z,10.93
2023-03-18T15:20:49.392Z,9.90
2023-03-18T15:23:21.367Z,6.67
2023-03-18T15:25:49.185Z,4.00
2023-03-18T15:28:21.277Z,4.23
2023-03-18T15:30:54.378Z,5.47
2023-03-18T15:33:30.152Z,4.00
2023-03-18T15:36:04.239Z,4.90
2023-03-18T15:38:31.734Z,3.70
2023-03-18T15:41:09.982Z,3.63
2023-03-18T15:43:43.011Z,3.07
2023-03-18T15:46:25.624Z,3.07
2023-03-18T15:48:56.494Z,3.50
2023-03-18T15:51:23.157Z,2.57
2023-03-18T15:53:53.705Z,3.00
2023-03-18T15:56:35.369Z,3.33
2023-03-18T15:59:15.708Z,6.50
2023-03-18T16:01:42.206Z,3.40
2023-03-18T16:04:13.812Z,3.00
2023-03-18T16:06:40.379Z,2.93
2023-03-18T16:09:24.082Z,3.50
2023-03-18T16:11:57.155Z,3.37
2023-03-18T16:14:28.437Z,2.90
2023-03-18T16:16:54.872Z,3.43
2023-03-18T16:19:28.196Z,4.10
2023-03-18T16:21:59.690Z,5.33
2023-03-18T16:24:26.192Z,3.77
2023-03-18T16:26:53.990Z,4.17
2023-03-18T16:29:36.611Z,3.77
2023-03-18T16:32:03.656Z,3.73
2023-03-18T16:34:30.241Z,4.07
2023-03-18T16:36:56.982Z,5.33
2023-03-18T16:39:27.155Z,5.10
2023-03-18T16:41:53.589Z,4.40
2023-03-18T16:44:23.293Z,4.37
2023-03-18T16:46:53.686Z,4.83
2023-03-18T16:49:22.906Z,4.63
2023-03-18T16:51:51.910Z,5.13
2023-03-18T16:54:20.994Z,5.17
2023-03-18T16:56:49.014Z,5.40
2023-03-18T16:59:18.578Z,5.70
2023-03-18T17:01:45.861Z,5.27
2023-03-18T17:04:24.493Z,5.70
2023-03-18T17:06:51.949Z,5.20
2023-03-18T17:09:19.273Z,5.60
2023-03-18T17:11:48.860Z,6.23
2023-03-18T17:14:33.682Z,6.47
2023-03-18T17:17:03.762Z,5.97
2023-03-18T17:19:31.003Z,7.70
2023-03-18T17:21:57.406Z,5.97
2023-03-18T17:24:23.815Z,5.90
2023-03-18T17:26:51.447Z,6.93
2023-03-18T17:29:23.884Z,6.80
2023-03-18T17:31:51.902Z,7.70
2023-03-18T17:34:18.420Z,7.70
2023-03-18T17:36:44.793Z,6.80
2023-03-18T17:39:11.157Z,7.87
2023-03-18T17:41:37.876Z,8.50
2023-03-18T17:44:22.314Z,7.67
2023-03-18T17:46:48.642Z,7.53
2023-03-18T17:49:14.947Z,7.17
2023-03-18T17:51:41.538Z,8.67
2023-03-18T17:54:13.218Z,9.27
2023-03-18T17:56:40.447Z,9.53
2023-03-18T17:59:14.796Z,8.70
2023-03-18T18:01:42.373Z,9.30
2023-03-18T18:04:14.845Z,9.60
2023-03-18T18:06:41.235Z,9.30
2023-03-18T18:09:13.109Z,10.00
2023-03-18T18:11:45.422Z,9.17
2023-03-18T18:14:19.851Z,10.60
2023-03-18T18:16:47.619Z,15.23
2023-03-18T18:19:14.765Z,9.93
2023-03-18T18:21:42.886Z,9.27
2023-03-18T18:24:15.057Z,10.23
2023-03-18T18:26:41.610Z,11.70
2023-03-18T18:29:14.328Z,10.13
2023-03-18T18:31:40.713Z,9.63
2023-03-18T18:34:07.369Z,12.43
2023-03-18T18:36:33.679Z,10.50
2023-03-18T18:39:00.031Z,10.73
2023-03-18T18:41:27.144Z,9.63
2023-03-18T18:43:53.454Z,11.90
2023-03-18T18:46:21.207Z,11.40
2023-03-18T18:48:48.607Z,19.97
2023-03-18T18:51:18.361Z,38.80
2023-03-18T18:53:46.252Z,14.13
2023-03-18T18:56:25.175Z,14.90
2023-03-18T18:58:52.133Z,13.63
2023-03-18T19:01:19.768Z,11.97
2023-03-18T19:03:46.769Z,15.03
2023-03-18T19:06:25.797Z,14.97
2023-03-18T19:08:57.515Z,16.13
2023-03-18T19:11:25.034Z,14.93
2023-03-18T19:13:52.777Z,13.10
2023-03-18T19:16:27.959Z,13.73
2023-03-18T19:18:54.828Z,13.47
2023-03-18T19:21:21.913Z,14.03
2023-03-18T19:23:48.728Z,12.03
2023-03-18T19:26:18.527Z,13.03
2023-03-18T19:28:57.770Z,15.73
2023-03-18T19:31:27.263Z,24.57
2023-03-18T19:33:53.860Z,14.00
2023-03-18T19:36:25.914Z,14.80
2023-03-18T19:38:58.441Z,12.87
2023-03-18T19:41:25.341Z,16.20
2023-03-18T19:43:52.061Z,13.93
2023-03-18T19:46:27.657Z,13.93
2023-03-18T19:48:53.989Z,16.13
2023-03-18T19:51:20.297Z,36.27
2023-03-18T19:53:47.416Z,32.23
2023-03-18T19:56:24.143Z,44.70
2023-03-18T19:58:52.754Z,39.27
2023-03-18T20:01:21.752Z,41.40
2023-03-18T20:03:58.236Z,42.67
2023-03-18T20:06:25.665Z,43.13
2023-03-18T20:08:52.263Z,49.03
2023-03-18T20:11:20.862Z,38.77
2023-03-18T20:13:47.877Z,28.23
2023-03-18T20:16:16.221Z,29.60
2023-03-18T20:18:42.773Z,34.07
2023-03-18T20:21:19.255Z,32.33
2023-03-18T20:23:45.945Z,32.70
2023-03-18T20:26:12.291Z,32.43
2023-03-18T20:28:43.072Z,30.90
2023-03-18T20:31:11.406Z,30.03
2023-03-18T20:33:38.082Z,28.30
2023-03-18T20:36:06.057Z,32.87
2023-03-18T20:38:37.348Z,27.10
2023-03-18T20:41:05.225Z,28.27
2023-03-18T20:43:32.002Z,25.53
2023-03-18T20:46:00.241Z,26.30
2023-03-18T20:48:27.731Z,18.93
2023-03-18T20:50:55.175Z,18.10
2023-03-18T20:53:28.017Z,17.63
2023-03-18T20:55:55.639Z,24.23
2023-03-18T20:58:24.947Z,22.30
2023-03-18T21:00:52.862Z,21.90
2023-03-18T21:03:28.186Z,18.90
2023-03-18T21:05:58.649Z,17.93
2023-03-18T21:08:26.556Z,17.23
2023-03-18T21:10:53.966Z,15.23
2023-03-18T21:13:31.016Z,13.33
2023-03-18T21:15:59.060Z,12.97
2023-03-18T21:18:26.467Z,14.10
2023-03-18T21:20:53.778Z,16.37
2023-03-18T21:23:25.488Z,14.73
2023-03-18T21:25:53.160Z,14.60
2023-03-18T21:28:21.969Z,16.47
2023-03-18T21:30:50.651Z,13.83
2023-03-18T21:33:19.982Z,19.33
2023-03-18T21:35:46.534Z,14.80
2023-03-18T21:38:12.919Z,14.37
2023-03-18T21:40:39.467Z,14.17
2023-03-18T21:43:32.234Z,23.23
2023-03-18T21:45:59.086Z,13.97
2023-03-18T21:48:25.701Z,20.30
2023-03-18T21:50:52.165Z,17.77
2023-03-18T21:53:20.735Z,15.23
2023-03-18T21:55:47.746Z,12.87
2023-03-18T21:58:16.599Z,12.80
2023-03-18T22:00:44.938Z,17.27
2023-03-18T22:03:15.542Z,11.30
2023-03-18T22:05:41.918Z,11.57
2023-03-18T22:08:08.759Z,12.30
2023-03-18T22:10:35.251Z,12.67
2023-03-18T22:13:01.594Z,17.50
2023-03-18T22:15:35.744Z,13.23
2023-03-18T22:18:02.424Z,11.00
2023-03-18T22:20:29.458Z,12.67
2023-03-18T22:22:56.279Z,11.87
2023-03-18T22:25:30.155Z,12.33
2023-03-18T22:28:00.751Z,12.23
2023-03-18T22:30:29.184Z,10.17
2023-03-18T22:32:56.959Z,10.60
2023-03-18T22:35:26.191Z,12.23
2023-03-18T22:37:53.216Z,15.60
2023-03-18T22:40:31.490Z,13.10
2023-03-18T22:43:01.422Z,13.70
2023-03-18T22:45:32.719Z,10.73
2023-03-18T22:48:02.166Z,12.80
2023-03-18T22:50:31.729Z,13.60
2023-03-18T22:53:01.367Z,10.07
2023-03-18T22:55:38.782Z,12.17
2023-03-18T22:58:07.473Z,10.00
2023-03-18T23:00:39.228Z,11.60
2023-03-18T23:03:21.319Z,10.40
2023-03-18T23:05:50.301Z,14.40
2023-03-18T23:08:17.083Z,11.63
2023-03-18T23:10:44.290Z,13.93
2023-03-18T23:13:16.200Z,12.43
2023-03-18T23:15:43.563Z,11.23
2023-03-18T23:18:17.266Z,9.70
2023-03-18T23:20:45.834Z,11.83
2023-03-18T23:23:13.599Z,10.93
2023-03-18T23:25:41.690Z,11.77
2023-03-18T23:28:08.492Z,10.37
2023-03-18T23:30:36.547Z,10.67
2023-03-18T23:33:02.998Z,11.60
2023-03-18T23:35:29.569Z,13.43
2023-03-18T23:37:56.150Z,11.87
2023-03-18T23:40:22.611Z,12.43
2023-03-18T23:42:48.916Z,18.47
2023-03-18T23:45:15.536Z,15.37
2023-03-18T23:47:41.978Z,18.33
2023-03-18T23:50:09.582Z,13.60
2023-03-18T23:52:36.799Z,12.73
2023-03-18T23:55:04.122Z,14.50
2023-03-18T23:57:30.549Z,12.60
2023-03-18T23:59:56.867Z,16.40
